Time;durP1;ratioP1;P1;durP2;ratioP2;P2;SDS_P1;SDS_P2;PMS_P1;PMS_P2;Temp;Humidity;BMP_temperature;BMP_pressure;BME280_temperature;BME280_humidity;BME280_pressure;Samples;Min_cycle;Max_cycle;Signal;HPM_P1;HPM_P2
2023/01/20 00:01:11;;;;;;;;;;;;;;;3.91;69.56;99688.37;5409039;32;33766;-75
2023/01/20 00:04:14;;;;;;;;;;;;;;;3.71;69.61;99681.03;5383718;32;33228;-75
2023/01/20 00:07:16;;;;;;;;;;;;;;;3.95;68.50;99677.00;5388986;32;35677;-82
2023/01/20 00:10:18;;;;;;;;;;;;;;;4.03;68.30;99672.47;5393937;32;46909;-74
2023/01/20 00:13:19;;;;;;;;;;;;;;;3.30;70.61;99687.13;5399035;32;34183;-74
2023/01/20 00:16:22;;;;;;;;;;;;;;;2.92;72.67;99685.28;5409651;32;34407;-74
2023/01/20 00:19:24;;;;;;;;;;;;;;;3.51;71.67;99672.81;5385021;32;34586;-74
2023/01/20 00:22:25;;;;;;;;;;;;;;;3.88;69.36;99672.00;5412082;32;33724;-74
2023/01/20 00:25:27;;;;;;;;;;;;;;;3.48;68.70;99685.88;5401356;32;34467;-75
2023/01/20 00:28:29;;;;;;;;;;;;;;;3.58;70.16;99702.13;5407219;32;35183;-82
2023/01/20 00:31:31;;;;;;;;;;;;;;;3.63;70.66;99708.06;5410612;32;33860;-82
2023/01/20 00:34:33;;;;;;;;;;;;;;;3.92;69.66;99708.28;5399639;32;34082;-75
2023/01/20 00:37:35;;;;;;;;;;;;;;;4.19;66.59;99706.78;5414004;32;33836;-74
2023/01/20 00:40:37;;;;;;;;;;;;;;;4.70;66.76;99719.41;5397535;32;34611;-75
2023/01/20 00:43:39;;;;;;;;;;;;;;;3.60;69.05;99714.19;5415318;32;33867;-81
2023/01/20 00:46:41;;;;;;;;;;;;;;;3.75;69.25;99724.25;5400307;32;34067;-76
2023/01/20 00:49:43;;;;;;;;;;;;;;;3.74;69.25;99729.50;5382739;32;34013;-81
2023/01/20 00:52:45;;;;;;;;;;;;;;;4.39;67.86;99736.69;5381798;32;33916;-79
2023/01/20 00:55:47;;;;;;;;;;;;;;;3.92;67.17;99733.41;5393957;32;43555;-74
2023/01/20 00:58:49;;;;;;;;;;;;;;;4.88;65.41;99728.47;5404930;32;33742;-75
2023/01/20 01:01:51;;;;;;;;;;;;;;;4.42;65.75;99736.59;5395451;32;34574;-81
2023/01/20 01:04:53;;;;;;;;;;;;;;;4.20;66.19;99734.50;5399597;32;33901;-75
2023/01/20 01:07:55;;;;;;;;;;;;;;;3.29;68.75;99720.94;5407409;32;34176;-81
2023/01/20 01:10:57;;;;;;;;;;;;;;;3.60;69.75;99714.19;5401929;32;33295;-80
2023/01/20 01:13:59;;;;;;;;;;;;;;;3.66;68.14;99701.06;5409160;32;34146;-75
2023/01/20 01:17:01;;;;;;;;;;;;;;;4.34;66.62;99677.78;5403631;32;34070;-82
2023/01/20 01:20:03;;;;;;;;;;;;;;;4.25;65.13;99684.97;5410616;32;34438;-81
2023/01/20 01:23:05;;;;;;;;;;;;;;;4.11;67.29;99693.09;5397212;32;33770;-74
2023/01/20 01:26:07;;;;;;;;;;;;;;;2.95;70.87;99695.59;5398836;32;33697;-74
2023/01/20 01:29:09;;;;;;;;;;;;;;;3.14;71.00;99683.97;5389382;32;35853;-82
2023/01/20 01:32:11;;;;;;;;;;;;;;;3.42;69.73;99683.41;5404371;32;34725;-76
2023/01/20 01:35:13;;;;;;;;;;;;;;;4.34;66.83;99670.00;5407167;32;34460;-76
2023/01/20 01:38:15;;;;;;;;;;;;;;;4.06;67.40;99663.78;5399831;32;34623;-81
2023/01/20 01:41:17;;;;;;;;;;;;;;;2.79;70.96;99668.22;5396787;32;43206;-75
2023/01/20 01:44:20;;;;;;;;;;;;;;;2.74;71.89;99664.88;5389053;32;34417;-80
2023/01/20 01:47:21;;;;;;;;;;;;;;;2.64;73.11;99665.06;5405525;32;34752;-80
2023/01/20 01:50:31;;;;;;;;;;;;;;;2.70;73.27;99659.75;5389557;32;34149;-76
2023/01/20 01:53:36;;;;;;;;;;;;;;;2.78;73.48;99661.34;5388506;32;34517;-76
2023/01/20 01:56:38;;;;;;;;;;;;;;;3.16;73.09;99658.84;5414923;32;32970;-75
2023/01/20 01:59:41;;;;;;;;;;;;;;;2.57;72.92;99653.03;5400130;32;35023;-74
2023/01/20 02:02:43;;;;;;;;;;;;;;;3.20;71.69;99644.88;5415271;32;34478;-76
2023/01/20 02:05:45;;;;;;;;;;;;;;;3.04;72.05;99638.31;5393812;32;33696;-81
2023/01/20 02:08:47;;;;;;;;;;;;;;;2.79;73.43;99644.88;5416026;32;44879;-75
2023/01/20 02:11:51;;;;;;;;;;;;;;;3.26;71.12;99652.56;5404980;32;33905;-80
2023/01/20 02:14:53;;;;;;;;;;;;;;;2.96;71.63;99643.66;5383239;32;34022;-75
2023/01/20 02:18:06;;;;;;;;;;;;;;;3.23;70.96;99638.78;5402312;32;33648;-74
2023/01/20 02:21:26;;;;;;;;;;;;;;;2.98;72.75;99644.47;5395609;32;34298;-75
2023/01/20 02:24:31;;;;;;;;;;;;;;;3.56;70.63;99628.56;5411671;32;34515;-76
2023/01/20 02:27:39;;;;;;;;;;;;;;;3.35;70.42;99637.66;5408368;32;32148;-75
2023/01/20 02:30:53;;;;;;;;;;;;;;;3.24;71.00;99648.28;5384896;32;34428;-74
2023/01/20 02:34:02;;;;;;;;;;;;;;;3.85;68.94;99646.06;5416328;32;44509;-82
2023/01/20 02:37:12;;;;;;;;;;;;;;;3.51;70.83;99654.62;5404174;32;33716;-74
2023/01/20 02:40:17;;;;;;;;;;;;;;;2.69;72.27;99650.22;5411240;32;34647;-80
2023/01/20 02:43:22;;;;;;;;;;;;;;;2.40;73.68;99645.59;5405422;32;46080;-81
2023/01/20 02:46:35;;;;;;;;;;;;;;;2.58;73.59;99639.22;5401983;32;33730;-80
2023/01/20 02:49:37;;;;;;;;;;;;;;;2.96;71.72;99642.78;5405522;32;34465;-76
2023/01/20 02:52:43;;;;;;;;;;;;;;;3.75;68.52;99643.69;5384765;32;34176;-83
2023/01/20 02:55:46;;;;;;;;;;;;;;;3.56;70.25;99658.00;5410918;32;34406;-74
2023/01/20 02:58:49;;;;;;;;;;;;;;;3.70;69.35;99655.94;5388303;32;45506;-75
2023/01/20 03:01:52;;;;;;;;;;;;;;;4.67;65.70;99654.41;5409108;32;33816;-82
2023/01/20 03:05:03;;;;;;;;;;;;;;;3.86;67.02;99661.62;5404703;32;33486;-82
2023/01/20 03:08:05;;;;;;;;;;;;;;;2.78;71.77;99672.56;5409563;32;33662;-75
2023/01/20 03:11:07;;;;;;;;;;;;;;;2.48;73.31;99680.91;5396213;32;33739;-80
2023/01/20 03:14:10;;;;;;;;;;;;;;;2.74;72.91;99676.09;5387961;32;33646;-74
2023/01/20 03:17:12;;;;;;;;;;;;;;;2.80;73.08;99683.78;5412653;32;34506;-82
2023/01/20 03:20:14;;;;;;;;;;;;;;;3.78;68.68;99690.38;5384109;32;33311;-80
2023/01/20 03:23:16;;;;;;;;;;;;;;;3.04;70.76;99684.19;5405990;32;35128;-74
2023/01/20 03:26:19;;;;;;;;;;;;;;;2.54;73.86;99684.25;5407276;32;32864;-74
2023/01/20 03:29:21;;;;;;;;;;;;;;;2.82;73.35;99694.97;5389680;32;33671;-74
2023/01/20 03:32:25;;;;;;;;;;;;;;;2.57;73.94;99689.37;5415634;32;34103;-82
2023/01/20 03:35:27;;;;;;;;;;;;;;;2.71;74.09;99691.75;5388619;32;36114;-75
2023/01/20 03:38:29;;;;;;;;;;;;;;;3.73;70.16;99694.81;5416165;32;33709;-81
2023/01/20 03:41:40;;;;;;;;;;;;;;;3.30;71.88;99696.66;5384809;32;33965;-81
2023/01/20 03:44:51;;;;;;;;;;;;;;;3.02;71.69;99699.78;5407798;32;33681;-81
2023/01/20 03:48:07;;;;;;;;;;;;;;;4.23;68.88;99695.41;5422425;32;44688;-78
2023/01/20 03:51:11;;;;;;;;;;;;;;;4.01;67.41;99681.22;5371313;32;33216;-80
2023/01/20 03:54:14;;;;;;;;;;;;;;;2.86;72.64;99677.62;5402066;32;33674;-75
2023/01/20 03:57:17;;;;;;;;;;;;;;;2.66;73.49;99683.19;5395097;32;44876;-79
2023/01/20 04:00:20;;;;;;;;;;;;;;;2.74;74.18;99678.69;5395579;32;33908;-81
2023/01/20 04:03:24;;;;;;;;;;;;;;;3.37;71.34;99678.31;5410753;32;33226;-74
2023/01/20 04:06:26;;;;;;;;;;;;;;;3.57;70.75;99674.44;5398399;32;33184;-79
2023/01/20 04:09:29;;;;;;;;;;;;;;;3.47;70.68;99674.63;5418973;32;36789;-75
2023/01/20 04:12:31;;;;;;;;;;;;;;;3.07;71.83;99658.16;5385674;32;33879;-82
2023/01/20 04:15:35;;;;;;;;;;;;;;;2.70;74.19;99666.66;5386509;32;34426;-74
2023/01/20 04:18:39;;;;;;;;;;;;;;;3.38;70.99;99661.84;5384977;32;33854;-81
2023/01/20 04:21:42;;;;;;;;;;;;;;;3.77;71.10;99672.25;5401582;32;34396;-75
2023/01/20 04:24:55;;;;;;;;;;;;;;;4.02;70.22;99669.91;5412200;32;33947;-76
2023/01/20 04:27:57;;;;;;;;;;;;;;;3.15;71.06;99672.69;5395532;32;36522;-82
2023/01/20 04:30:59;;;;;;;;;;;;;;;2.86;74.06;99675.88;5409268;32;34247;-83
2023/01/20 04:34:02;;;;;;;;;;;;;;;3.67;71.40;99671.59;5384634;32;33240;-81
2023/01/20 04:37:04;;;;;;;;;;;;;;;3.48;70.44;99680.69;5409518;32;34671;-75
2023/01/20 04:40:06;;;;;;;;;;;;;;;3.36;71.57;99675.75;5402698;32;34812;-81
2023/01/20 04:43:09;;;;;;;;;;;;;;;3.85;70.13;99675.50;5398833;32;33858;-80
2023/01/20 04:46:12;;;;;;;;;;;;;;;3.36;71.19;99665.37;5415989;32;34486;-75
2023/01/20 04:49:14;;;;;;;;;;;;;;;4.02;69.53;99681.19;5394985;32;33261;-74
2023/01/20 04:52:16;;;;;;;;;;;;;;;3.95;69.91;99683.97;5392214;32;33551;-76
2023/01/20 04:55:18;;;;;;;;;;;;;;;4.38;67.89;99681.19;5396991;32;46579;-81
2023/01/20 04:58:20;;;;;;;;;;;;;;;4.24;67.51;99678.06;5417316;32;34897;-80
2023/01/20 05:01:22;;;;;;;;;;;;;;;4.88;66.11;99673.78;5408433;32;33986;-75
2023/01/20 05:04:24;;;;;;;;;;;;;;;3.68;69.26;99662.06;5400991;32;33953;-75
2023/01/20 05:07:26;;;;;;;;;;;;;;;3.98;69.65;99648.31;5416753;32;34011;-75
2023/01/20 05:10:28;;;;;;;;;;;;;;;4.07;69.46;99629.91;5392517;32;34391;-83
2023/01/20 05:13:30;;;;;;;;;;;;;;;3.46;71.25;99627.87;5414638;32;31383;-83
2023/01/20 05:16:35;;;;;;;;;;;;;;;3.04;72.74;99622.75;5398418;32;34582;-82
2023/01/20 05:19:36;;;;;;;;;;;;;;;3.34;71.78;99633.34;5417589;32;33958;-82
2023/01/20 05:22:38;;;;;;;;;;;;;;;3.29;72.08;99628.28;5402617;32;34019;-80
2023/01/20 05:25:40;;;;;;;;;;;;;;;3.51;71.43;99629.50;5388372;32;34310;-76
2023/01/20 05:28:43;;;;;;;;;;;;;;;3.25;72.31;99640.47;5418207;32;34045;-81
2023/01/20 05:31:45;;;;;;;;;;;;;;;3.67;71.34;99627.44;5398355;32;34862;-75
2023/01/20 05:34:47;;;;;;;;;;;;;;;4.67;67.96;99630.13;5417357;32;44551;-75
2023/01/20 05:37:53;;;;;;;;;;;;;;;4.33;67.65;99626.66;5398656;32;35859;-75
2023/01/20 05:40:59;;;;;;;;;;;;;;;3.97;69.29;99636.22;5414421;32;33891;-81
2023/01/20 05:44:01;;;;;;;;;;;;;;;4.24;68.62;99631.22;5409523;32;33835;-75
2023/01/20 05:47:03;;;;;;;;;;;;;;;4.43;68.33;99639.41;5386856;32;33935;-75
2023/01/20 05:50:05;;;;;;;;;;;;;;;3.24;72.30;99637.91;5413688;32;33728;-81
2023/01/20 05:53:07;;;;;;;;;;;;;;;4.06;70.31;99633.41;5400035;32;34555;-84
2023/01/20 05:56:11;;;;;;;;;;;;;;;4.26;68.66;99630.31;5409961;32;34610;-82
2023/01/20 05:59:13;;;;;;;;;;;;;;;4.67;68.12;99646.59;5417077;32;34678;-81
2023/01/20 06:02:17;;;;;;;;;;;;;;;4.60;67.42;99645.03;5408995;32;33261;-75
2023/01/20 06:05:19;;;;;;;;;;;;;;;4.02;70.12;99636.13;5401638;32;44610;-83
2023/01/20 06:08:21;;;;;;;;;;;;;;;5.16;66.67;99648.69;5400651;32;33904;-81
2023/01/20 06:11:23;;;;;;;;;;;;;;;3.45;71.86;99644.38;5415414;32;33330;-81
2023/01/20 06:14:25;;;;;;;;;;;;;;;3.51;73.28;99639.03;5394842;32;31036;-76
2023/01/20 06:17:27;;;;;;;;;;;;;;;3.94;72.40;99633.72;5414910;32;34527;-76
2023/01/20 06:20:29;;;;;;;;;;;;;;;3.36;74.88;99644.59;5405954;32;34928;-82
2023/01/20 06:23:31;;;;;;;;;;;;;;;3.77;74.35;99626.31;5409871;32;34411;-75
2023/01/20 06:26:33;;;;;;;;;;;;;;;4.41;70.33;99626.47;5414412;32;34003;-82
2023/01/20 06:29:35;;;;;;;;;;;;;;;4.27;72.42;99631.16;5414729;32;34560;-75
2023/01/20 06:32:37;;;;;;;;;;;;;;;3.75;72.85;99635.03;5411482;32;33342;-73
2023/01/20 06:35:39;;;;;;;;;;;;;;;4.25;72.57;99631.22;5411443;32;34053;-80
2023/01/20 06:38:41;;;;;;;;;;;;;;;4.25;72.26;99633.81;5427114;32;33905;-81
2023/01/20 06:41:42;;;;;;;;;;;;;;;4.13;72.56;99633.28;5415399;32;34062;-81
2023/01/20 06:44:44;;;;;;;;;;;;;;;4.41;71.80;99638.62;5413025;32;34131;-75
2023/01/20 06:47:49;;;;;;;;;;;;;;;3.70;74.98;99648.13;5414352;32;44505;-77
2023/01/20 06:50:51;;;;;;;;;;;;;;;3.81;74.30;99647.91;5406316;32;33565;-81
2023/01/20 06:53:53;;;;;;;;;;;;;;;4.02;74.11;99641.31;5407980;32;34389;-76
2023/01/20 06:56:55;;;;;;;;;;;;;;;3.70;75.56;99662.88;5408627;32;33386;-82
2023/01/20 06:59:58;;;;;;;;;;;;;;;4.85;72.00;99659.09;5421732;32;33842;-82
2023/01/20 07:03:00;;;;;;;;;;;;;;;3.84;73.45;99668.59;5409342;32;33154;-84
2023/01/20 07:06:03;;;;;;;;;;;;;;;4.61;72.49;99664.97;5402823;32;34794;-83
2023/01/20 07:09:07;;;;;;;;;;;;;;;4.49;72.31;99660.06;5417805;32;33766;-76
2023/01/20 07:12:09;;;;;;;;;;;;;;;4.63;71.30;99668.38;5391437;32;34309;-76
2023/01/20 07:15:11;;;;;;;;;;;;;;;4.58;71.58;99660.72;5419566;32;33052;-74
2023/01/20 07:18:13;;;;;;;;;;;;;;;4.84;70.35;99677.38;5406775;32;33917;-75
2023/01/20 07:21:15;;;;;;;;;;;;;;;4.51;71.93;99671.31;5420270;32;32406;-81
2023/01/20 07:24:17;;;;;;;;;;;;;;;4.44;72.40;99685.34;5410115;32;44985;-75
2023/01/20 07:27:19;;;;;;;;;;;;;;;4.51;71.23;99686.94;5413624;32;33375;-81
2023/01/20 07:30:21;;;;;;;;;;;;;;;4.18;73.43;99686.84;5423410;32;35735;-81
2023/01/20 07:33:23;;;;;;;;;;;;;;;4.30;74.08;99689.16;5398606;32;36112;-75
2023/01/20 07:36:25;;;;;;;;;;;;;;;4.64;71.75;99680.53;5423895;32;33474;-75
2023/01/20 07:39:27;;;;;;;;;;;;;;;5.47;69.43;99686.88;5415728;32;33849;-75
2023/01/20 07:42:30;;;;;;;;;;;;;;;4.83;69.59;99693.88;5424187;32;34648;-75
2023/01/20 07:45:31;;;;;;;;;;;;;;;4.65;70.80;99690.03;5419425;32;34453;-81
2023/01/20 07:48:33;;;;;;;;;;;;;;;5.10;69.32;99684.47;5398910;32;34438;-75
2023/01/20 07:51:35;;;;;;;;;;;;;;;5.11;69.05;99688.78;5398112;32;34524;-75
2023/01/20 07:54:37;;;;;;;;;;;;;;;4.27;71.56;99694.44;5408195;32;34755;-75
2023/01/20 07:57:39;;;;;;;;;;;;;;;3.94;73.99;99700.47;5419899;32;33929;-80
2023/01/20 08:00:41;;;;;;;;;;;;;;;3.44;76.08;99699.81;5416389;32;33271;-75
2023/01/20 08:03:43;;;;;;;;;;;;;;;3.78;73.83;99705.13;5424907;32;34117;-75
2023/01/20 08:06:45;;;;;;;;;;;;;;;4.77;71.45;99701.88;5419244;32;34477;-82
2023/01/20 08:09:48;;;;;;;;;;;;;;;4.80;70.24;99710.44;5423318;32;44389;-79
2023/01/20 08:12:50;;;;;;;;;;;;;;;4.10;72.37;99717.41;5424214;32;33289;-80
2023/01/20 08:15:52;;;;;;;;;;;;;;;4.66;70.68;99715.16;5422419;32;34579;-74
2023/01/20 08:18:54;;;;;;;;;;;;;;;4.79;70.26;99711.34;5410126;32;34295;-75
2023/01/20 08:21:56;;;;;;;;;;;;;;;4.60;70.84;99717.91;5408337;32;34234;-80
2023/01/20 08:24:58;;;;;;;;;;;;;;;5.23;67.94;99718.87;5425668;32;34813;-79
2023/01/20 08:28:00;;;;;;;;;;;;;;;4.24;70.74;99717.91;5410972;32;34610;-82
2023/01/20 08:31:09;;;;;;;;;;;;;;;4.28;71.11;99723.91;5410711;32;34200;-81
2023/01/20 08:34:11;;;;;;;;;;;;;;;4.33;70.36;99715.12;5427386;32;33960;-82
2023/01/20 08:37:13;;;;;;;;;;;;;;;4.05;73.73;99727.03;5411177;32;33085;-83
2023/01/20 08:40:15;;;;;;;;;;;;;;;4.70;70.08;99723.72;5425203;32;33254;-79
2023/01/20 08:43:17;;;;;;;;;;;;;;;4.24;71.54;99724.88;5415293;32;45261;-80
2023/01/20 08:46:19;;;;;;;;;;;;;;;3.91;72.31;99721.31;5426612;32;34579;-81
2023/01/20 08:49:22;;;;;;;;;;;;;;;4.10;72.30;99722.59;5403417;32;34248;-74
2023/01/20 08:52:24;;;;;;;;;;;;;;;4.34;70.65;99726.37;5397143;32;33709;-80
2023/01/20 08:55:26;;;;;;;;;;;;;;;4.72;70.26;99719.37;5397384;32;34210;-75
2023/01/20 08:58:30;;;;;;;;;;;;;;;5.28;67.45;99723.06;5422595;32;34308;-81
2023/01/20 09:01:34;;;;;;;;;;;;;;;4.65;70.31;99730.81;5427619;32;36134;-75
2023/01/20 09:04:37;;;;;;;;;;;;;;;5.95;65.78;99715.03;5401722;32;33963;-76
2023/01/20 09:07:38;;;;;;;;;;;;;;;5.89;64.81;99726.47;5422426;32;33781;-75
2023/01/20 09:10:40;;;;;;;;;;;;;;;6.21;64.23;99729.84;5422493;32;35023;-81
2023/01/20 09:13:42;;;;;;;;;;;;;;;5.43;66.30;99738.25;5402138;32;34063;-81
2023/01/20 09:16:44;;;;;;;;;;;;;;;5.80;65.26;99736.34;5425298;32;33341;-82
2023/01/20 09:19:47;;;;;;;;;;;;;;;5.92;64.66;99730.75;5404534;32;46031;-76
2023/01/20 09:22:49;;;;;;;;;;;;;;;5.48;66.62;99719.03;5424628;32;34725;-76
2023/01/20 09:25:51;;;;;;;;;;;;;;;6.67;62.54;99715.31;5410222;32;33792;-82
2023/01/20 09:28:53;;;;;;;;;;;;;;;6.50;62.70;99710.63;5419121;32;34079;-74
2023/01/20 09:31:56;;;;;;;;;;;;;;;5.73;64.82;99709.56;5409826;32;36108;-77
2023/01/20 09:34:59;;;;;;;;;;;;;;;5.67;65.41;99700.19;5414169;32;33154;-82
2023/01/20 09:44:52;;;;;;;;;;;;;;;5.51;65.76;99678.06;5420124;32;34542;-82
2023/01/20 09:47:58;;;;;;;;;;;;;;;4.82;66.73;99668.75;5415180;32;44536;-81
2023/01/20 09:54:25;;;;;;;;;;;;;;;5.69;65.28;99668.84;5419457;32;45974;-82
2023/01/20 09:57:28;;;;;;;;;;;;;;;5.00;66.66;99670.00;5408020;32;33455;-83
2023/01/20 10:00:30;;;;;;;;;;;;;;;5.61;65.59;99668.25;5423019;32;33407;-80
2023/01/20 10:03:35;;;;;;;;;;;;;;;5.04;66.55;99656.84;5416056;32;33614;-81
2023/01/20 10:06:54;;;;;;;;;;;;;;;4.88;66.77;99643.37;5393668;32;33945;-80
2023/01/20 10:10:03;;;;;;;;;;;;;;;5.00;67.51;99641.34;5422149;32;44029;-76
2023/01/20 10:13:25;;;;;;;;;;;;;;;3.99;70.40;99626.66;5411582;32;34203;-74
2023/01/20 10:16:30;;;;;;;;;;;;;;;4.15;70.47;99613.28;5409034;32;34546;-73
2023/01/20 10:19:38;;;;;;;;;;;;;;;5.51;65.87;99578.16;5416483;32;34516;-81
2023/01/20 10:22:54;;;;;;;;;;;;;;;4.70;68.14;99604.00;5414532;32;33750;-82
2023/01/20 10:26:11;;;;;;;;;;;;;;;5.00;67.18;99594.47;5398660;32;33299;-81
2023/01/20 10:29:19;;;;;;;;;;;;;;;4.77;68.58;99600.34;5398146;32;34988;-81
2023/01/20 10:32:21;;;;;;;;;;;;;;;5.29;66.42;99601.44;5407313;32;45483;-75
2023/01/20 10:35:24;;;;;;;;;;;;;;;5.42;65.55;99611.44;5409387;32;34412;-75
2023/01/20 10:38:35;;;;;;;;;;;;;;;5.90;63.68;99605.56;5411691;32;33123;-75
2023/01/20 10:41:44;;;;;;;;;;;;;;;6.06;64.30;99592.09;5426089;32;33708;-81
2023/01/20 10:44:47;;;;;;;;;;;;;;;6.41;62.63;99599.56;5404954;32;38373;-81
2023/01/20 10:47:59;;;;;;;;;;;;;;;6.72;61.99;99603.72;5424064;32;33898;-82
2023/01/20 10:51:05;;;;;;;;;;;;;;;6.87;60.72;99613.59;5393460;32;34041;-76
2023/01/20 10:54:16;;;;;;;;;;;;;;;7.19;59.26;99617.63;5394042;32;33951;-75
2023/01/20 10:57:18;;;;;;;;;;;;;;;6.75;59.78;99614.03;5425198;32;44510;-76
2023/01/20 11:00:22;;;;;;;;;;;;;;;6.39;60.91;99611.81;5415994;32;33268;-82
2023/01/20 11:03:24;;;;;;;;;;;;;;;6.12;61.92;99631.88;5425765;32;34296;-75
2023/01/20 11:06:26;;;;;;;;;;;;;;;5.75;62.06;99624.34;5396441;32;33868;-75
2023/01/20 11:09:31;;;;;;;;;;;;;;;5.57;63.16;99636.19;5422196;32;33930;-81
2023/01/20 11:12:33;;;;;;;;;;;;;;;5.87;63.04;99621.34;5412192;32;33955;-80
2023/01/20 11:15:36;;;;;;;;;;;;;;;5.62;63.40;99620.41;5414018;32;33379;-75
2023/01/20 11:18:38;;;;;;;;;;;;;;;5.51;63.67;99627.69;5422991;32;33575;-77
2023/01/20 11:21:40;;;;;;;;;;;;;;;5.39;64.59;99608.91;5396748;32;33747;-81
2023/01/20 11:24:42;;;;;;;;;;;;;;;5.87;63.36;99610.06;5423669;32;33991;-74
2023/01/20 11:27:44;;;;;;;;;;;;;;;5.93;63.49;99592.50;5400730;32;33082;-83
2023/01/20 11:30:49;;;;;;;;;;;;;;;6.43;61.95;99589.91;5420951;32;44700;-80
2023/01/20 11:33:58;;;;;;;;;;;;;;;6.18;62.84;99591.66;5418971;32;34853;-82
2023/01/20 11:37:03;;;;;;;;;;;;;;;5.54;65.42;99581.56;5410241;32;33258;-74
2023/01/20 11:40:15;;;;;;;;;;;;;;;4.93;67.20;99583.38;5408272;32;34146;-83
2023/01/20 11:43:32;;;;;;;;;;;;;;;5.34;66.54;99569.09;5414853;32;44854;-74
2023/01/20 11:46:36;;;;;;;;;;;;;;;5.73;65.01;99566.16;5392784;32;33790;-81
2023/01/20 11:49:38;;;;;;;;;;;;;;;4.89;67.30;99564.41;5397078;32;34681;-75
2023/01/20 11:52:42;;;;;;;;;;;;;;;5.05;68.86;99569.16;5395175;32;33800;-81
2023/01/20 11:55:54;;;;;;;;;;;;;;;5.39;68.20;99561.16;5421886;32;35130;-75
2023/01/20 11:59:00;;;;;;;;;;;;;;;5.55;68.88;99554.59;5407709;32;31869;-80
2023/01/20 12:02:05;;;;;;;;;;;;;;;6.37;63.99;99557.94;5407373;32;34437;-81
2023/01/20 12:05:09;;;;;;;;;;;;;;;5.39;69.05;99556.78;5401503;32;35831;-76
2023/01/20 12:08:14;;;;;;;;;;;;;;;5.56;67.40;99560.66;5415427;32;34675;-75
2023/01/20 12:11:18;;;;;;;;;;;;;;;5.22;68.32;99553.88;5419595;32;45192;-75
2023/01/20 12:14:23;;;;;;;;;;;;;;;5.65;66.07;99550.75;5396993;32;45242;-81
2023/01/20 12:17:28;;;;;;;;;;;;;;;5.83;66.66;99558.91;5407778;32;34078;-75
2023/01/20 12:20:50;;;;;;;;;;;;;;;5.15;69.00;99563.62;5414203;32;33236;-80
2023/01/20 12:24:11;;;;;;;;;;;;;;;4.68;70.79;99572.81;5421019;32;34287;-75
2023/01/20 12:27:15;;;;;;;;;;;;;;;4.61;71.56;99563.47;5423395;32;33519;-75
2023/01/20 12:30:35;;;;;;;;;;;;;;;4.45;71.53;99577.81;5400679;32;45216;-81
2023/01/20 12:33:43;;;;;;;;;;;;;;;4.74;71.52;99564.81;5428545;32;34391;-75
2023/01/20 12:37:04;;;;;;;;;;;;;;;4.27;72.71;99566.13;5391704;32;34152;-75
2023/01/20 12:40:25;;;;;;;;;;;;;;;4.33;72.65;99561.63;5415428;32;34113;-80
2023/01/20 12:43:38;;;;;;;;;;;;;;;4.70;72.23;99547.59;5420886;32;33754;-82
2023/01/20 12:46:41;;;;;;;;;;;;;;;4.18;73.64;99562.00;5409139;32;33984;-75
2023/01/20 12:49:56;;;;;;;;;;;;;;;4.48;71.73;99564.69;5410651;32;33375;-74
2023/01/20 12:53:02;;;;;;;;;;;;;;;4.63;72.00;99569.47;5379349;32;34740;-81
2023/01/20 12:56:17;;;;;;;;;;;;;;;4.90;69.30;99560.03;5409053;32;34322;-81
2023/01/20 12:59:35;;;;;;;;;;;;;;;3.83;73.86;99562.91;5420691;32;46735;-81
2023/01/20 13:02:51;;;;;;;;;;;;;;;3.76;75.21;99579.56;5402728;32;34230;-81
2023/01/20 13:06:03;;;;;;;;;;;;;;;4.26;72.18;99582.66;5415068;32;44380;-82
2023/01/20 13:09:15;;;;;;;;;;;;;;;4.30;72.85;99577.28;5416011;32;33670;-74
2023/01/20 13:12:17;;;;;;;;;;;;;;;4.50;73.66;99570.69;5400843;32;44746;-75
2023/01/20 13:15:26;;;;;;;;;;;;;;;4.20;73.11;99586.25;5415581;32;33874;-75
2023/01/20 13:18:31;;;;;;;;;;;;;;;4.91;72.66;99581.72;5404948;32;33050;-81
2023/01/20 13:21:33;;;;;;;;;;;;;;;3.95;75.04;99567.81;5405015;32;33310;-76
2023/01/20 13:24:35;;;;;;;;;;;;;;;4.42;75.28;99593.47;5407676;32;34074;-81
2023/01/20 13:27:38;;;;;;;;;;;;;;;4.26;74.38;99588.69;5405817;32;33972;-75
2023/01/20 13:30:49;;;;;;;;;;;;;;;3.38;77.33;99596.03;5403997;32;33861;-74
2023/01/20 13:33:51;;;;;;;;;;;;;;;3.89;76.78;99593.12;5383678;32;44624;-74
2023/01/20 13:37:02;;;;;;;;;;;;;;;4.47;75.16;99589.87;5411306;32;34540;-78
2023/01/20 13:40:24;;;;;;;;;;;;;;;4.11;75.59;99591.66;5405711;32;33728;-75
2023/01/20 13:43:34;;;;;;;;;;;;;;;4.54;73.11;99587.94;5406779;32;34160;-80
2023/01/20 13:46:37;;;;;;;;;;;;;;;4.56;74.55;99592.22;5412645;32;33714;-75
2023/01/20 13:49:50;;;;;;;;;;;;;;;4.38;74.40;99591.84;5405003;32;33608;-75
2023/01/20 13:52:52;;;;;;;;;;;;;;;4.45;74.41;99599.47;5396251;32;43140;-74
2023/01/20 13:55:55;;;;;;;;;;;;;;;4.31;74.89;99584.19;5405351;32;34828;-81
2023/01/20 13:58:57;;;;;;;;;;;;;;;3.41;79.02;99593.34;5418797;32;33240;-80
2023/01/20 14:02:07;;;;;;;;;;;;;;;4.12;77.41;99577.78;5388948;32;34088;-75
2023/01/20 14:05:26;;;;;;;;;;;;;;;3.16;77.94;99590.47;5407904;32;33350;-75
2023/01/20 14:08:29;;;;;;;;;;;;;;;4.19;76.43;99601.91;5420741;32;33556;-75
2023/01/20 14:11:32;;;;;;;;;;;;;;;4.14;73.81;99609.81;5403087;32;33921;-74
2023/01/20 14:14:33;;;;;;;;;;;;;;;3.89;75.66;99613.91;5418914;32;34473;-80
2023/01/20 14:17:35;;;;;;;;;;;;;;;3.39;76.33;99613.34;5391658;32;33729;-76
2023/01/20 14:20:39;;;;;;;;;;;;;;;3.48;77.20;99614.00;5410888;32;33454;-74
2023/01/20 14:23:42;;;;;;;;;;;;;;;3.50;78.02;99620.00;5419171;32;33528;-75
2023/01/20 14:26:44;;;;;;;;;;;;;;;3.71;76.03;99623.84;5392123;32;33910;-81
2023/01/20 14:29:46;;;;;;;;;;;;;;;4.42;73.17;99633.38;5423020;32;33207;-82
2023/01/20 14:32:49;;;;;;;;;;;;;;;3.82;75.14;99613.22;5404274;32;46967;-81
2023/01/20 14:35:51;;;;;;;;;;;;;;;4.41;73.47;99617.81;5419282;32;34204;-75
2023/01/20 14:38:57;;;;;;;;;;;;;;;3.66;75.24;99623.09;5410999;32;32329;-75
2023/01/20 14:42:00;;;;;;;;;;;;;;;3.99;73.93;99620.56;5404674;32;33892;-82
2023/01/20 14:45:02;;;;;;;;;;;;;;;3.95;75.19;99630.22;5416548;32;33832;-81
2023/01/20 14:48:04;;;;;;;;;;;;;;;3.70;73.21;99635.13;5404813;32;34432;-83
2023/01/20 14:51:06;;;;;;;;;;;;;;;3.63;75.46;99637.91;5399307;32;34029;-76
2023/01/20 14:54:27;;;;;;;;;;;;;;;3.28;76.65;99643.87;5401091;32;34457;-74
2023/01/20 14:57:29;;;;;;;;;;;;;;;3.60;75.05;99636.22;5394616;32;34198;-76
2023/01/20 15:00:32;;;;;;;;;;;;;;;3.39;76.12;99636.72;5416135;32;34464;-80
2023/01/20 15:03:35;;;;;;;;;;;;;;;3.56;75.69;99636.34;5394677;32;34337;-74
2023/01/20 15:06:37;;;;;;;;;;;;;;;3.64;76.12;99634.41;5418320;32;33895;-75
2023/01/20 15:09:40;;;;;;;;;;;;;;;3.19;77.34;99648.38;5397255;32;33815;-75
2023/01/20 15:12:45;;;;;;;;;;;;;;;3.52;75.79;99653.75;5411813;32;33905;-75
2023/01/20 15:15:47;;;;;;;;;;;;;;;3.08;78.64;99655.53;5400903;32;43985;-80
2023/01/20 15:19:07;;;;;;;;;;;;;;;2.75;79.66;99658.78;5409667;32;33578;-74
2023/01/20 15:22:16;;;;;;;;;;;;;;;3.21;78.10;99659.56;5413933;32;34227;-81
2023/01/20 15:25:18;;;;;;;;;;;;;;;3.37;77.33;99656.69;5409201;32;45049;-81
2023/01/20 15:28:27;;;;;;;;;;;;;;;3.44;76.40;99664.31;5420997;32;34082;-75
2023/01/20 15:31:29;;;;;;;;;;;;;;;3.22;76.56;99652.63;5391854;32;33990;-76
2023/01/20 15:34:31;;;;;;;;;;;;;;;3.16;79.03;99664.03;5403233;32;33938;-81
2023/01/20 15:37:33;;;;;;;;;;;;;;;3.50;75.98;99661.56;5412037;32;33883;-74
2023/01/20 15:40:38;;;;;;;;;;;;;;;3.25;77.17;99666.44;5411267;32;34517;-81
2023/01/20 15:43:41;;;;;;;;;;;;;;;3.23;77.01;99664.75;5421709;32;34405;-74
2023/01/20 15:46:43;;;;;;;;;;;;;;;3.40;77.17;99682.56;5390353;32;33950;-81
2023/01/20 15:49:45;;;;;;;;;;;;;;;3.13;75.94;99681.41;5422816;32;34512;-81
2023/01/20 15:52:47;;;;;;;;;;;;;;;3.61;75.82;99674.34;5382711;32;42731;-76
2023/01/20 15:55:50;;;;;;;;;;;;;;;3.30;77.21;99666.34;5402157;32;34478;-81
2023/01/20 15:58:52;;;;;;;;;;;;;;;3.05;76.69;99676.38;5414445;32;34464;-82
2023/01/20 16:01:53;;;;;;;;;;;;;;;3.02;77.84;99680.75;5401192;32;33938;-80
2023/01/20 16:04:56;;;;;;;;;;;;;;;3.05;77.20;99688.50;5416483;32;33227;-74
2023/01/20 16:07:57;;;;;;;;;;;;;;;3.29;77.42;99680.22;5398606;32;34457;-79
2023/01/20 16:11:00;;;;;;;;;;;;;;;3.68;76.09;99683.72;5398320;32;33368;-75
2023/01/20 16:14:01;;;;;;;;;;;;;;;2.98;76.06;99685.16;5408110;32;34401;-75
2023/01/20 16:17:08;;;;;;;;;;;;;;;2.87;78.20;99689.69;5397958;32;33441;-84
2023/01/20 16:20:13;;;;;;;;;;;;;;;2.79;77.40;99695.03;5387315;32;34641;-80
2023/01/20 16:23:16;;;;;;;;;;;;;;;2.71;78.64;99691.75;5401331;32;34603;-80